createdAt,value
2019-01-05T00:02:29.603Z,83.77
2019-01-05T00:05:33.072Z,82.33
2019-01-05T00:08:32.608Z,79.73
2019-01-05T00:11:24.393Z,75.20
2019-01-05T00:14:14.611Z,84.23
2019-01-05T00:17:02.524Z,74.00
2019-01-05T00:19:57.523Z,80.33
2019-01-05T00:23:06.062Z,79.33
2019-01-05T00:25:53.021Z,84.10
2019-01-05T00:28:40.742Z,79.60
2019-01-05T00:31:44.626Z,79.93
2019-01-05T00:34:42.887Z,78.07
2019-01-05T00:37:29.077Z,83.33
2019-01-05T00:40:21.055Z,81.10
2019-01-05T00:43:08.436Z,83.17
2019-01-05T00:45:54.727Z,86.67
2019-01-05T00:48:48.478Z,80.13
2019-01-05T00:51:41.531Z,83.90
2019-01-05T00:54:50.180Z,81.27
2019-01-05T00:57:52.629Z,81.23
2019-01-05T01:00:39.815Z,83.10
2019-01-05T01:03:29.685Z,76.33
2019-01-05T01:06:21.312Z,83.97
2019-01-05T01:09:18.975Z,80.20
2019-01-05T01:12:10.379Z,79.30
2019-01-05T01:15:05.193Z,78.23
2019-01-05T01:17:52.896Z,75.80
2019-01-05T01:20:56.412Z,79.67
2019-01-05T01:23:48.023Z,79.97
2019-01-05T01:26:48.714Z,73.77
2019-01-05T01:29:35.622Z,81.27
2019-01-05T01:32:32.674Z,79.50
2019-01-05T01:35:19.791Z,74.77
2019-01-05T01:38:42.619Z,72.33
2019-01-05T01:41:38.402Z,77.60
2019-01-05T01:44:42.287Z,73.87
2019-01-05T01:47:46.171Z,76.17
2019-01-05T01:50:37.710Z,71.87
2019-01-05T01:53:30.667Z,79.87
2019-01-05T01:56:16.831Z,76.10
2019-01-05T01:59:06.663Z,76.57
2019-01-05T02:01:55.903Z,71.47
2019-01-05T02:04:40.459Z,74.87
2019-01-05T09:17:51.439Z,20.20
2019-01-05T09:21:32.572Z,27.47
2019-01-05T09:25:09.568Z,15.57
2019-01-05T09:28:49.476Z,16.97
2019-01-05T09:32:09.297Z,18.67
2019-01-05T09:35:53.115Z,9.37
2019-01-05T09:39:11.332Z,12.37
2019-01-05T09:42:45.248Z,14.50
2019-01-05T09:46:22.205Z,12.97
2019-01-05T09:49:52.044Z,12.50
2019-01-05T09:53:27.884Z,11.00
2019-01-05T09:57:10.565Z,12.23
2019-01-05T10:00:31.317Z,10.33
2019-01-05T10:04:26.021Z,10.73
2019-01-05T10:08:05.805Z,9.17
2019-01-05T10:11:28.582Z,10.33
2019-01-05T10:14:56.379Z,10.60
2019-01-05T10:18:20.848Z,10.97
2019-01-05T10:21:39.768Z,10.83
2019-01-05T10:25:09.904Z,8.50
2019-01-05T10:28:33.331Z,11.20
2019-01-05T10:32:17.040Z,9.80
2019-01-05T10:35:48.693Z,16.53
2019-01-05T10:39:20.639Z,10.30
2019-01-05T10:42:51.157Z,13.07
2019-01-05T10:46:19.662Z,12.83
2019-01-05T10:49:42.999Z,13.07
2019-01-05T10:53:26.379Z,15.43
2019-01-05T10:57:16.094Z,10.30
2019-01-05T11:00:55.063Z,8.97
2019-01-05T11:04:31.593Z,12.23
2019-01-05T11:08:02.617Z,8.10
2019-01-05T11:11:24.611Z,10.80
2019-01-05T11:15:13.728Z,11.97
2019-01-05T11:18:45.274Z,14.40
2019-01-05T11:22:18.284Z,11.73
2019-01-05T11:25:35.823Z,8.00
2019-01-05T11:28:47.074Z,12.50
2019-01-05T11:32:14.965Z,13.17
2019-01-05T11:35:50.983Z,13.13
2019-01-05T11:39:34.380Z,14.73
2019-01-05T11:43:15.854Z,10.87
2019-01-05T11:46:47.523Z,10.13
2019-01-05T11:50:02.410Z,11.90
2019-01-05T11:53:26.989Z,10.77
2019-01-05T11:56:49.536Z,15.80
2019-01-05T11:59:59.660Z,8.60
2019-01-05T12:03:17.532Z,10.67
2019-01-05T12:07:04.589Z,13.93
2019-01-05T12:10:33.824Z,10.57
2019-01-05T12:14:08.698Z,16.63
2019-01-05T12:17:32.840Z,9.03
2019-01-05T12:21:11.143Z,14.10
2019-01-05T12:24:40.345Z,11.77
2019-01-05T12:28:08.539Z,10.03
2019-01-05T12:31:38.302Z,15.90
2019-01-05T12:35:27.014Z,12.23
2019-01-05T12:38:49.315Z,8.93
2019-01-05T12:42:19.639Z,13.50
2019-01-05T12:45:44.847Z,13.73
2019-01-05T12:49:04.006Z,12.90
2019-01-05T12:52:47.067Z,12.00
2019-01-05T12:56:05.408Z,13.07
2019-01-05T12:59:34.528Z,13.40
2019-01-05T13:03:08.697Z,11.20
2019-01-05T13:06:57.936Z,16.17
2019-01-05T13:10:38.071Z,11.63
2019-01-05T13:14:14.347Z,11.93
2019-01-05T13:17:38.702Z,10.40
2019-01-05T13:21:24.375Z,15.30
2019-01-05T13:25:01.666Z,13.20
2019-01-05T13:28:24.763Z,12.30
2019-01-05T13:32:08.007Z,7.50
2019-01-05T13:35:49.672Z,11.87
2019-01-05T13:39:48.885Z,13.77
2019-01-05T13:43:14.223Z,12.47
2019-01-05T13:46:51.442Z,12.43
2019-01-05T13:50:11.536Z,10.80
2019-01-05T13:53:30.497Z,12.73
2019-01-05T13:56:12.353Z,11.03
2019-01-05T13:58:58.944Z,12.47
2019-01-05T14:01:45.031Z,8.67
2019-01-05T14:04:42.811Z,14.17
2019-01-05T14:07:31.039Z,9.07
2019-01-05T14:10:18.530Z,13.53
2019-01-05T14:13:25.427Z,10.43
2019-01-05T14:16:10.392Z,8.97
2019-01-05T14:19:07.614Z,8.57
2019-01-05T14:21:54.547Z,12.20
2019-01-05T14:24:53.030Z,11.23
2019-01-05T14:27:44.602Z,11.27
2019-01-05T14:30:31.586Z,7.70
2019-01-05T14:33:22.927Z,11.40
2019-01-05T14:36:11.409Z,15.80
2019-01-05T14:39:02.160Z,9.70
2019-01-05T14:41:36.250Z,8.07
2019-01-05T14:44:23.422Z,7.70
2019-01-05T14:47:10.856Z,6.87
2019-01-05T14:49:58.201Z,10.87
2019-01-05T14:52:52.766Z,8.17
2019-01-05T14:55:50.140Z,9.37
2019-01-05T14:58:44.447Z,10.57
2019-01-05T15:01:27.735Z,9.03
2019-01-05T15:04:14.778Z,10.27
2019-01-05T15:07:05.525Z,9.43
2019-01-05T15:09:57.268Z,7.90
2019-01-05T15:12:51.020Z,8.40
2019-01-05T15:15:45.451Z,11.87
2019-01-05T15:18:36.587Z,12.57
2019-01-05T15:21:29.576Z,8.33
2019-01-05T15:24:16.495Z,9.50
2019-01-05T15:27:08.096Z,14.70
2019-01-05T15:29:54.766Z,9.33
2019-01-05T15:33:01.530Z,16.33
2019-01-05T15:35:48.626Z,14.73
2019-01-05T15:38:37.184Z,11.63
2019-01-05T15:41:17.311Z,15.50
2019-01-05T15:44:04.251Z,8.07
2019-01-05T15:46:51.343Z,11.30
2019-01-05T15:49:45.907Z,11.23
2019-01-05T15:52:32.571Z,7.73
2019-01-05T15:55:19.767Z,11.70
2019-01-05T15:58:06.772Z,13.43
2019-01-05T16:00:53.472Z,12.60
2019-01-05T16:03:41.843Z,13.00
2019-01-05T16:06:43.015Z,12.37
2019-01-05T16:09:29.846Z,9.83
2019-01-05T16:12:33.273Z,8.73
2019-01-05T16:15:24.842Z,12.07
2019-01-05T16:18:18.935Z,12.03
2019-01-05T16:21:13.288Z,13.23
2019-01-05T16:24:04.559Z,13.03
2019-01-05T16:26:49.679Z,17.83
2019-01-05T16:29:50.315Z,13.47
2019-01-05T16:32:44.308Z,10.93
2019-01-05T16:35:32.546Z,14.83
2019-01-05T16:38:19.774Z,16.40
2019-01-05T16:41:08.299Z,12.17
2019-01-05T16:44:14.544Z,10.67
2019-01-05T16:47:01.413Z,14.60
2019-01-05T16:50:04.667Z,17.53
2019-01-05T16:52:55.759Z,19.27
2019-01-05T16:55:38.264Z,19.53
2019-01-05T16:58:44.758Z,20.67
2019-01-05T17:01:33.070Z,14.60
2019-01-05T17:04:30.566Z,20.67
2019-01-05T17:07:36.776Z,18.20
2019-01-05T17:10:40.270Z,18.43
2019-01-05T17:13:28.513Z,18.10
2019-01-05T17:16:23.564Z,15.83
2019-01-05T17:19:10.766Z,14.63
2019-01-05T17:21:57.396Z,20.20
2019-01-05T17:24:51.788Z,22.07
2019-01-05T17:27:50.992Z,19.10
2019-01-05T17:30:37.558Z,21.33
2019-01-05T17:33:40.781Z,16.03
2019-01-05T17:36:27.464Z,14.87
2019-01-05T17:39:15.092Z,16.53
2019-01-05T17:42:01.994Z,16.90
2019-01-05T17:45:05.794Z,17.87
2019-01-05T17:48:00.405Z,15.50
2019-01-05T17:50:54.538Z,16.77
2019-01-05T17:53:48.804Z,15.73
2019-01-05T17:56:43.222Z,12.77
2019-01-05T17:59:46.563Z,12.00
2019-01-05T18:02:28.662Z,16.17
2019-01-05T18:05:29.309Z,16.33
2019-01-05T18:08:16.812Z,15.97
2019-01-05T18:10:56.313Z,16.10
2019-01-05T18:14:02.929Z,14.30
2019-01-05T18:17:03.421Z,11.17
2019-01-05T18:20:07.003Z,17.10
2019-01-05T18:23:02.773Z,15.10
2019-01-05T18:25:51.392Z,15.60
2019-01-05T18:28:52.078Z,15.47
2019-01-05T18:31:49.611Z,14.10
2019-01-05T18:34:37.952Z,14.50
2019-01-05T18:37:32.505Z,13.43
2019-01-05T18:40:30.127Z,13.63
2019-01-05T18:43:19.075Z,13.77
2019-01-05T18:46:22.889Z,16.90
2019-01-05T18:49:01.083Z,18.53
2019-01-05T18:52:05.100Z,14.20
2019-01-05T18:54:53.349Z,20.37
2019-01-05T18:57:50.910Z,22.90
2019-01-05T19:00:39.183Z,18.53
2019-01-05T19:03:26.007Z,15.57
2019-01-05T19:06:14.296Z,19.17
2019-01-05T19:09:01.352Z,24.70
2019-01-05T19:12:08.539Z,16.60
2019-01-05T19:14:50.629Z,16.10
2019-01-05T19:17:44.982Z,19.00
2019-01-05T19:20:39.448Z,15.37
2019-01-05T19:23:26.358Z,16.93
2019-01-05T19:26:33.424Z,15.23
2019-01-05T19:29:37.406Z,15.83
2019-01-05T19:32:32.232Z,14.47
2019-01-05T19:35:14.341Z,14.10
2019-01-05T19:38:07.474Z,13.10
2019-01-05T19:40:56.091Z,17.60
2019-01-05T19:43:42.995Z,13.00
2019-01-05T19:46:27.291Z,16.47
2019-01-05T19:49:14.066Z,22.13
2019-01-05T19:52:20.374Z,23.33
2019-01-05T19:55:14.759Z,18.13
2019-01-05T19:58:01.671Z,18.23
2019-01-05T20:00:48.836Z,17.40
2019-01-05T20:03:46.719Z,19.97
2019-01-05T20:06:43.756Z,17.50
2019-01-05T20:09:30.515Z,18.37
2019-01-05T20:12:17.803Z,21.33
2019-01-05T20:15:04.881Z,17.53
2019-01-05T20:17:52.055Z,14.00
2019-01-05T20:20:39.291Z,17.90
2019-01-05T20:23:31.116Z,17.43
2019-01-05T20:26:18.679Z,15.50
2019-01-05T20:29:13.267Z,17.60
2019-01-05T20:32:04.327Z,21.70
2019-01-05T20:35:12.454Z,21.57
2019-01-05T20:38:22.765Z,14.83
2019-01-05T20:41:17.114Z,16.67
2019-01-05T20:44:20.718Z,20.30
2019-01-05T20:47:13.247Z,19.63
2019-01-05T20:50:20.127Z,19.83
2019-01-05T20:53:08.357Z,19.53
2019-01-05T20:55:57.750Z,24.00
2019-01-05T20:58:49.260Z,20.30
2019-01-05T21:01:36.387Z,25.53
2019-01-05T21:04:21.367Z,23.23
2019-01-05T21:07:23.699Z,26.20
2019-01-05T21:10:17.595Z,21.20
2019-01-05T21:13:24.027Z,21.40
2019-01-05T21:16:10.719Z,19.53
2019-01-05T21:19:14.031Z,21.93
2019-01-05T21:22:01.673Z,24.10
2019-01-05T21:24:51.977Z,22.50
2019-01-05T21:27:46.417Z,23.20
2019-01-05T21:30:33.771Z,23.17
2019-01-05T21:33:37.327Z,20.50
2019-01-05T21:36:25.735Z,18.97
2019-01-05T21:39:12.686Z,19.27
2019-01-05T21:41:59.468Z,21.73
2019-01-05T21:45:02.920Z,20.93
2019-01-05T21:48:23.780Z,17.77
2019-01-05T21:51:22.990Z,22.37
2019-01-05T21:54:14.010Z,15.73
2019-01-05T21:57:01.281Z,17.47
2019-01-05T21:59:50.552Z,18.20
2019-01-05T22:02:35.682Z,19.83
2019-01-05T22:05:22.840Z,22.87
2019-01-05T22:08:10.068Z,22.23
2019-01-05T22:10:55.807Z,19.40
2019-01-05T22:13:47.912Z,19.97
2019-01-05T22:16:34.865Z,21.03
2019-01-05T22:19:45.715Z,20.73
2019-01-05T22:22:32.364Z,19.10
2019-01-05T22:25:29.959Z,23.80
2019-01-05T22:28:13.380Z,19.20
2019-01-05T22:31:04.451Z,22.27
2019-01-05T22:33:51.235Z,21.20
2019-01-05T22:36:40.454Z,22.50
2019-01-05T22:39:31.803Z,21.63
2019-01-05T22:42:22.843Z,22.37
2019-01-05T22:45:09.027Z,18.53
2019-01-05T22:48:03.635Z,18.57
2019-01-05T22:50:50.724Z,21.07
2019-01-05T22:53:37.920Z,19.23
2019-01-05T22:56:29.435Z,23.17
2019-01-05T22:59:35.795Z,16.67
2019-01-05T23:02:22.788Z,15.57
2019-01-05T23:05:11.007Z,21.57
2019-01-05T23:08:08.659Z,22.67
2019-01-05T23:10:55.886Z,18.43
2019-01-05T23:13:56.238Z,16.67
2019-01-05T23:17:06.145Z,16.57
2019-01-05T23:19:55.694Z,20.70
2019-01-05T23:22:59.360Z,24.27
2019-01-05T23:25:46.554Z,15.73
2019-01-05T23:28:44.615Z,17.63
2019-01-05T23:31:35.667Z,20.70
2019-01-05T23:34:42.348Z,20.87
2019-01-05T23:37:33.928Z,16.87
2019-01-05T23:40:28.529Z,15.47
2019-01-05T23:43:15.750Z,14.60
2019-01-05T23:46:07.158Z,14.80
2019-01-05T23:48:54.375Z,19.40
2019-01-05T23:51:48.872Z,12.70
2019-01-05T23:54:35.843Z,16.00
2019-01-05T23:57:23.031Z,14.60
